sensor_id;sensor_type;location;lat;lon;timestamp;pressure;altitude;pressure_sealevel;temperature;humidity
48622;BME280;34421;48.944;9.460;2023-04-02T00:01:02;97710.22;;;10.91;66.67
48622;BME280;34421;48.944;9.460;2023-04-02T00:04:10;97709.56;;;10.96;66.39
48622;BME280;34421;48.944;9.460;2023-04-02T00:08:56;97718.00;;;10.93;67.06
48622;BME280;34421;48.944;9.460;2023-04-02T00:11:32;97722.28;;;10.94;66.73
48622;BME280;34421;48.944;9.460;2023-04-02T00:14:00;97716.94;;;10.94;66.65
48622;BME280;34421;48.944;9.460;2023-04-02T00:16:26;97723.78;;;10.90;66.56
48622;BME280;34421;48.944;9.460;2023-04-02T00:18:53;97724.84;;;10.89;67.38
48622;BME280;34421;48.944;9.460;2023-04-02T00:23:48;97736.31;;;10.89;67.78
48622;BME280;34421;48.944;9.460;2023-04-02T00:28:54;97733.97;;;10.81;67.31
48622;BME280;34421;48.944;9.460;2023-04-02T00:31:19;97735.47;;;10.77;67.13
48622;BME280;34421;48.944;9.460;2023-04-02T00:33:45;97742.53;;;10.71;67.31
48622;BME280;34421;48.944;9.460;2023-04-02T00:36:12;97737.66;;;10.68;67.17
48622;BME280;34421;48.944;9.460;2023-04-02T00:38:37;97734.88;;;10.75;67.28
48622;BME280;34421;48.944;9.460;2023-04-02T00:41:08;97736.41;;;10.83;67.68
48622;BME280;34421;48.944;9.460;2023-04-02T00:43:37;97741.28;;;10.86;68.00
48622;BME280;34421;48.944;9.460;2023-04-02T00:46:07;97733.84;;;10.88;67.95
48622;BME280;34421;48.944;9.460;2023-04-02T00:48:55;97736.53;;;10.88;67.64
48622;BME280;34421;48.944;9.460;2023-04-02T00:51:23;97735.50;;;10.89;67.95
48622;BME280;34421;48.944;9.460;2023-04-02T00:53:51;97731.19;;;10.88;68.22
48622;BME280;34421;48.944;9.460;2023-04-02T00:56:38;97730.38;;;10.87;67.36
48622;BME280;34421;48.944;9.460;2023-04-02T00:59:02;97734.31;;;10.85;68.14
48622;BME280;34421;48.944;9.460;2023-04-02T01:01:34;97735.59;;;10.82;67.89
48622;BME280;34421;48.944;9.460;2023-04-02T01:04:01;97736.63;;;10.81;67.20
48622;BME280;34421;48.944;9.460;2023-04-02T01:06:27;97742.22;;;10.80;67.10
48622;BME280;34421;48.944;9.460;2023-04-02T01:14:17;97746.34;;;10.76;67.18
48622;BME280;34421;48.944;9.460;2023-04-02T01:16:54;97745.19;;;10.71;67.93
48622;BME280;34421;48.944;9.460;2023-04-02T01:24:18;97753.63;;;10.68;67.47
48622;BME280;34421;48.944;9.460;2023-04-02T01:26:46;97756.16;;;10.63;68.14
48622;BME280;34421;48.944;9.460;2023-04-02T01:29:33;97759.88;;;10.62;68.18
48622;BME280;34421;48.944;9.460;2023-04-02T01:32:06;97753.25;;;10.53;67.98
48622;BME280;34421;48.944;9.460;2023-04-02T01:34:33;97756.69;;;10.42;66.79
48622;BME280;34421;48.944;9.460;2023-04-02T01:42:08;97768.72;;;10.26;68.35
48622;BME280;34421;48.944;9.460;2023-04-02T01:47:12;97765.16;;;10.20;68.22
48622;BME280;34421;48.944;9.460;2023-04-02T01:49:38;97776.94;;;10.24;68.54
48622;BME280;34421;48.944;9.460;2023-04-02T01:52:05;97776.94;;;10.24;68.17
48622;BME280;34421;48.944;9.460;2023-04-02T01:54:31;97780.25;;;10.26;68.63
48622;BME280;34421;48.944;9.460;2023-04-02T01:56:57;97782.56;;;10.35;67.94
48622;BME280;34421;48.944;9.460;2023-04-02T01:59:22;97786.78;;;10.42;68.44
48622;BME280;34421;48.944;9.460;2023-04-02T02:01:53;97795.34;;;10.44;68.57
48622;BME280;34421;48.944;9.460;2023-04-02T02:04:21;97795.69;;;10.48;68.47
48622;BME280;34421;48.944;9.460;2023-04-02T02:06:46;97796.75;;;10.47;68.85
48622;BME280;34421;48.944;9.460;2023-04-02T02:09:14;97794.75;;;10.42;69.29
48622;BME280;34421;48.944;9.460;2023-04-02T02:11:41;97796.50;;;10.48;69.26
48622;BME280;34421;48.944;9.460;2023-04-02T02:14:16;97795.25;;;10.51;68.78
48622;BME280;34421;48.944;9.460;2023-04-02T02:16:42;97799.53;;;10.52;69.93
48622;BME280;34421;48.944;9.460;2023-04-02T02:19:18;97802.44;;;10.51;70.08
48622;BME280;34421;48.944;9.460;2023-04-02T02:21:46;97806.00;;;10.44;69.17
48622;BME280;34421;48.944;9.460;2023-04-02T02:24:21;97806.66;;;10.40;69.32
48622;BME280;34421;48.944;9.460;2023-04-02T02:26:48;97805.41;;;10.42;69.31
48622;BME280;34421;48.944;9.460;2023-04-02T02:29:16;97810.72;;;10.42;69.92
48622;BME280;34421;48.944;9.460;2023-04-02T02:31:42;97810.38;;;10.39;69.50
48622;BME280;34421;48.944;9.460;2023-04-02T02:34:13;97810.81;;;10.36;69.43
48622;BME280;34421;48.944;9.460;2023-04-02T02:36:52;97806.50;;;10.35;69.34
48622;BME280;34421;48.944;9.460;2023-04-02T02:39:21;97806.91;;;10.38;70.54
48622;BME280;34421;48.944;9.460;2023-04-02T02:41:54;97817.75;;;10.37;70.45
48622;BME280;34421;48.944;9.460;2023-04-02T02:46:57;97813.84;;;10.39;69.40
48622;BME280;34421;48.944;9.460;2023-04-02T02:49:28;97817.31;;;10.40;69.46
48622;BME280;34421;48.944;9.460;2023-04-02T02:54:32;97822.97;;;10.43;69.72
48622;BME280;34421;48.944;9.460;2023-04-02T02:57:00;97821.13;;;10.44;70.03
48622;BME280;34421;48.944;9.460;2023-04-02T02:59:26;97826.25;;;10.45;69.45
48622;BME280;34421;48.944;9.460;2023-04-02T03:01:53;97826.25;;;10.45;70.64
48622;BME280;34421;48.944;9.460;2023-04-02T03:04:19;97828.69;;;10.47;70.30
48622;BME280;34421;48.944;9.460;2023-04-02T03:06:50;97824.97;;;10.48;69.29
48622;BME280;34421;48.944;9.460;2023-04-02T03:09:22;97832.97;;;10.48;70.10
48622;BME280;34421;48.944;9.460;2023-04-02T03:12:18;97824.19;;;10.47;70.30
48622;BME280;34421;48.944;9.460;2023-04-02T03:17:09;97830.06;;;10.49;69.51
48622;BME280;34421;48.944;9.460;2023-04-02T03:19:37;97837.38;;;10.54;69.29
48622;BME280;34421;48.944;9.460;2023-04-02T03:27:10;97846.88;;;10.62;69.46
48622;BME280;34421;48.944;9.460;2023-04-02T03:29:41;97843.56;;;10.66;69.40
48622;BME280;34421;48.944;9.460;2023-04-02T03:37:05;97857.69;;;10.67;70.54
48622;BME280;34421;48.944;9.460;2023-04-02T03:39:39;97859.31;;;10.68;69.34
48622;BME280;34421;48.944;9.460;2023-04-02T03:42:08;97863.59;;;10.69;70.52
48622;BME280;34421;48.944;9.460;2023-04-02T03:44:38;97865.66;;;10.67;69.38
48622;BME280;34421;48.944;9.460;2023-04-02T03:47:13;97863.25;;;10.65;70.30
48622;BME280;34421;48.944;9.460;2023-04-02T03:49:42;97861.59;;;10.64;70.30
48622;BME280;34421;48.944;9.460;2023-04-02T03:52:11;97870.63;;;10.63;69.55
48622;BME280;34421;48.944;9.460;2023-04-02T03:54:37;97872.69;;;10.61;69.68
48622;BME280;34421;48.944;9.460;2023-04-02T03:57:03;97875.81;;;10.58;70.89
48622;BME280;34421;48.944;9.460;2023-04-02T03:59:43;97877.66;;;10.58;71.08
48622;BME280;34421;48.944;9.460;2023-04-02T04:04:37;97879.53;;;10.57;70.19
48622;BME280;34421;48.944;9.460;2023-04-02T04:07:04;97884.59;;;10.59;70.89
48622;BME280;34421;48.944;9.460;2023-04-02T04:09:32;97884.41;;;10.60;70.40
48622;BME280;34421;48.944;9.460;2023-04-02T04:14:44;97889.47;;;10.62;70.64
48622;BME280;34421;48.944;9.460;2023-04-02T04:17:18;97895.75;;;10.67;70.56
48622;BME280;34421;48.944;9.460;2023-04-02T04:19:53;97888.63;;;10.68;70.57
48622;BME280;34421;48.944;9.460;2023-04-02T04:22:25;97896.81;;;10.66;70.32
48622;BME280;34421;48.944;9.460;2023-04-02T04:24:54;97900.06;;;10.68;71.19
48622;BME280;34421;48.944;9.460;2023-04-02T04:27:28;97900.53;;;10.65;71.84
48622;BME280;34421;48.944;9.460;2023-04-02T04:30:06;97908.72;;;10.64;72.01
48622;BME280;34421;48.944;9.460;2023-04-02T04:32:45;97903.63;;;10.62;71.99
48622;BME280;34421;48.944;9.460;2023-04-02T04:37:49;97909.53;;;10.64;70.68
48622;BME280;34421;48.944;9.460;2023-04-02T04:40:23;97913.69;;;10.60;70.80
48622;BME280;34421;48.944;9.460;2023-04-02T04:42:49;97911.22;;;10.59;71.08
48622;BME280;34421;48.944;9.460;2023-04-02T04:48:05;97928.03;;;10.59;72.07
48622;BME280;34421;48.944;9.460;2023-04-02T04:50:33;97939.72;;;10.58;71.40
48622;BME280;34421;48.944;9.460;2023-04-02T04:53:04;97945.47;;;10.55;72.63
48622;BME280;34421;48.944;9.460;2023-04-02T04:58:03;97946.53;;;10.54;72.01
48622;BME280;34421;48.944;9.460;2023-04-02T05:05:41;97952.13;;;10.46;72.18
48622;BME280;34421;48.944;9.460;2023-04-02T05:08:11;97948.47;;;10.47;73.22
48622;BME280;34421;48.944;9.460;2023-04-02T05:13:04;97952.28;;;10.51;72.79
48622;BME280;34421;48.944;9.460;2023-04-02T05:15:34;97950.00;;;10.55;72.51
48622;BME280;34421;48.944;9.460;2023-04-02T05:18:23;97959.97;;;10.59;72.83
48622;BME280;34421;48.944;9.460;2023-04-02T05:20:51;97967.81;;;10.54;72.01
48622;BME280;34421;48.944;9.460;2023-04-02T05:23:20;97967.81;;;10.54;73.22
48622;BME280;34421;48.944;9.460;2023-04-02T05:28:17;97971.66;;;10.58;72.24
48622;BME280;34421;48.944;9.460;2023-04-02T05:33:34;97978.97;;;10.63;73.12
48622;BME280;34421;48.944;9.460;2023-04-02T05:36:18;97979.59;;;10.65;72.88
48622;BME280;34421;48.944;9.460;2023-04-02T05:38:45;97986.28;;;10.67;72.74
48622;BME280;34421;48.944;9.460;2023-04-02T05:43:53;97990.97;;;10.72;72.71
48622;BME280;34421;48.944;9.460;2023-04-02T05:46:22;97993.38;;;10.73;72.72
48622;BME280;34421;48.944;9.460;2023-04-02T05:48:55;98000.13;;;10.76;71.59
48622;BME280;34421;48.944;9.460;2023-04-02T05:51:34;98002.78;;;10.76;71.62
48622;BME280;34421;48.944;9.460;2023-04-02T05:54:02;98000.50;;;10.80;72.75
48622;BME280;34421;48.944;9.460;2023-04-02T06:01:34;98013.50;;;10.88;72.15
48622;BME280;34421;48.944;9.460;2023-04-02T06:06:49;98012.69;;;10.87;71.66
48622;BME280;34421;48.944;9.460;2023-04-02T06:11:45;98021.78;;;10.98;71.81
48622;BME280;34421;48.944;9.460;2023-04-02T06:14:12;98030.28;;;11.07;72.60
48622;BME280;34421;48.944;9.460;2023-04-02T06:16:38;98026.59;;;11.08;71.68
48622;BME280;34421;48.944;9.460;2023-04-02T06:19:05;98036.78;;;11.11;71.47
48622;BME280;34421;48.944;9.460;2023-04-02T06:21:34;98040.25;;;11.11;72.04
48622;BME280;34421;48.944;9.460;2023-04-02T06:24:00;98045.16;;;11.14;71.97
48622;BME280;34421;48.944;9.460;2023-04-02T06:26:40;98043.69;;;11.18;72.13
48622;BME280;34421;48.944;9.460;2023-04-02T06:34:10;98049.88;;;11.31;72.14
48622;BME280;34421;48.944;9.460;2023-04-02T06:36:37;98055.19;;;11.31;71.20
48622;BME280;34421;48.944;9.460;2023-04-02T06:39:04;98055.56;;;11.34;71.11
48622;BME280;34421;48.944;9.460;2023-04-02T06:41:31;98069.47;;;11.36;71.97
48622;BME280;34421;48.944;9.460;2023-04-02T06:44:01;98071.09;;;11.37;70.44
48622;BME280;34421;48.944;9.460;2023-04-02T06:46:39;98079.44;;;11.41;70.81
48622;BME280;34421;48.944;9.460;2023-04-02T06:49:28;98077.38;;;11.43;70.60
48622;BME280;34421;48.944;9.460;2023-04-02T06:51:57;98082.03;;;11.48;70.31
48622;BME280;34421;48.944;9.460;2023-04-02T06:54:24;98081.81;;;11.49;70.69
48622;BME280;34421;48.944;9.460;2023-04-02T06:56:50;98089.13;;;11.54;70.29
48622;BME280;34421;48.944;9.460;2023-04-02T06:59:16;98096.09;;;11.55;70.79
48622;BME280;34421;48.944;9.460;2023-04-02T07:01:44;98097.25;;;11.59;70.73
48622;BME280;34421;48.944;9.460;2023-04-02T07:04:11;98104.47;;;11.58;70.76
48622;BME280;34421;48.944;9.460;2023-04-02T07:06:36;98106.88;;;11.60;70.06
48622;BME280;34421;48.944;9.460;2023-04-02T07:09:01;98111.78;;;11.63;69.77
48622;BME280;34421;48.944;9.460;2023-04-02T07:11:27;98114.00;;;11.66;70.20
48622;BME280;34421;48.944;9.460;2023-04-02T07:13:52;98119.69;;;11.70;70.07
48622;BME280;34421;48.944;9.460;2023-04-02T07:16:18;98120.88;;;11.74;70.02
48622;BME280;34421;48.944;9.460;2023-04-02T07:18:45;98125.16;;;11.75;69.69
48622;BME280;34421;48.944;9.460;2023-04-02T07:21:11;98125.53;;;11.78;69.89
48622;BME280;34421;48.944;9.460;2023-04-02T07:23:36;98134.28;;;11.85;69.90
48622;BME280;34421;48.944;9.460;2023-04-02T07:26:02;98133.59;;;11.90;69.19
48622;BME280;34421;48.944;9.460;2023-04-02T07:28:28;98144.84;;;11.92;69.06
48622;BME280;34421;48.944;9.460;2023-04-02T07:30:53;98140.91;;;11.95;69.38
48622;BME280;34421;48.944;9.460;2023-04-02T07:33:20;98148.81;;;12.01;69.44
48622;BME280;34421;48.944;9.460;2023-04-02T07:35:46;98153.63;;;12.11;69.19
48622;BME280;34421;48.944;9.460;2023-04-02T07:38:11;98155.13;;;12.19;69.29
48622;BME280;34421;48.944;9.460;2023-04-02T07:40:36;98156.31;;;12.23;68.17
48622;BME280;34421;48.944;9.460;2023-04-02T07:43:02;98162.94;;;12.20;68.42
48622;BME280;34421;48.944;9.460;2023-04-02T07:45:28;98155.94;;;12.19;69.70
48622;BME280;34421;48.944;9.460;2023-04-02T07:47:53;98164.44;;;12.28;69.01
48622;BME280;34421;48.944;9.460;2023-04-02T07:50:18;98164.25;;;12.41;69.49
48622;BME280;34421;48.944;9.460;2023-04-02T07:52:44;98169.38;;;12.54;68.45
48622;BME280;34421;48.944;9.460;2023-04-02T07:55:09;98172.31;;;12.65;67.65
48622;BME280;34421;48.944;9.460;2023-04-02T07:57:47;98179.03;;;12.67;68.31
48622;BME280;34421;48.944;9.460;2023-04-02T08:00:13;98183.94;;;12.70;67.93
48622;BME280;34421;48.944;9.460;2023-04-02T08:02:38;98179.84;;;12.68;68.40
48622;BME280;34421;48.944;9.460;2023-04-02T08:05:07;98189.94;;;12.66;68.14
48622;BME280;34421;48.944;9.460;2023-04-02T08:07:33;98190.53;;;12.68;67.57
48622;BME280;34421;48.944;9.460;2023-04-02T08:09:58;98197.50;;;12.69;67.55
48622;BME280;34421;48.944;9.460;2023-04-02T08:12:23;98194.97;;;12.74;67.27
48622;BME280;34421;48.944;9.460;2023-04-02T08:14:49;98203.31;;;12.77;67.21
48622;BME280;34421;48.944;9.460;2023-04-02T08:17:14;98202.28;;;12.90;67.74
48622;BME280;34421;48.944;9.460;2023-04-02T08:19:39;98205.66;;;13.09;66.89
48622;BME280;34421;48.944;9.460;2023-04-02T08:22:05;98207.97;;;13.29;66.00
48622;BME280;34421;48.944;9.460;2023-04-02T08:24:30;98217.03;;;13.52;65.63
48622;BME280;34421;48.944;9.460;2023-04-02T08:26:55;98212.59;;;13.69;65.36
48622;BME280;34421;48.944;9.460;2023-04-02T08:29:21;98216.97;;;13.87;65.60
48622;BME280;34421;48.944;9.460;2023-04-02T08:31:46;98217.59;;;14.06;65.13
48622;BME280;34421;48.944;9.460;2023-04-02T08:34:12;98214.38;;;14.21;64.02
48622;BME280;34421;48.944;9.460;2023-04-02T08:36:38;98223.50;;;14.36;63.88
48622;BME280;34421;48.944;9.460;2023-04-02T08:39:04;98230.09;;;14.46;63.67
48622;BME280;34421;48.944;9.460;2023-04-02T08:41:30;98233.47;;;14.53;63.20
48622;BME280;34421;48.944;9.460;2023-04-02T08:51:57;98247.78;;;14.75;61.99
48622;BME280;34421;48.944;9.460;2023-04-02T08:54:27;98248.34;;;14.77;61.32
48622;BME280;34421;48.944;9.460;2023-04-02T08:57:06;98257.28;;;14.83;61.22
48622;BME280;34421;48.944;9.460;2023-04-02T08:59:37;98260.47;;;14.97;60.62
48622;BME280;34421;48.944;9.460;2023-04-02T09:04:33;98259.94;;;15.17;59.71
48622;BME280;34421;48.944;9.460;2023-04-02T09:07:00;98262.56;;;15.12;59.64
48622;BME280;34421;48.944;9.460;2023-04-02T09:09:26;98271.91;;;15.09;58.82
48622;BME280;34421;48.944;9.460;2023-04-02T09:11:55;98265.44;;;15.05;59.09
48622;BME280;34421;48.944;9.460;2023-04-02T09:17:14;98278.75;;;15.00;58.73
48622;BME280;34421;48.944;9.460;2023-04-02T09:19:41;98279.97;;;15.09;58.69
48622;BME280;34421;48.944;9.460;2023-04-02T09:24:56;98279.13;;;15.42;58.72
48622;BME280;34421;48.944;9.460;2023-04-02T09:27:26;98284.19;;;15.78;58.60
48622;BME280;34421;48.944;9.460;2023-04-02T09:29:52;98283.91;;;15.96;57.03
48622;BME280;34421;48.944;9.460;2023-04-02T09:37:34;98292.94;;;16.34;56.11
48622;BME280;34421;48.944;9.460;2023-04-02T09:40:13;98292.44;;;16.37;55.40
48622;BME280;34421;48.944;9.460;2023-04-02T09:42:40;98295.78;;;16.49;55.10
48622;BME280;34421;48.944;9.460;2023-04-02T09:45:22;98294.50;;;16.79;54.27
48622;BME280;34421;48.944;9.460;2023-04-02T09:47:48;98296.22;;;16.90;54.43
48622;BME280;34421;48.944;9.460;2023-04-02T09:52:45;98299.09;;;16.83;53.85
48622;BME280;34421;48.944;9.460;2023-04-02T09:57:43;98309.22;;;16.49;54.47
48622;BME280;34421;48.944;9.460;2023-04-02T10:02:37;98322.34;;;16.24;54.47
48622;BME280;34421;48.944;9.460;2023-04-02T10:05:03;98325.16;;;16.12;54.46
48622;BME280;34421;48.944;9.460;2023-04-02T10:07:35;98328.31;;;16.04;54.49
48622;BME280;34421;48.944;9.460;2023-04-02T10:12:48;98335.88;;;15.68;54.42
48622;BME280;34421;48.944;9.460;2023-04-02T10:15:16;98336.09;;;15.49;54.82
48622;BME280;34421;48.944;9.460;2023-04-02T10:17:43;98341.56;;;15.38;55.24
48622;BME280;34421;48.944;9.460;2023-04-02T10:20:17;98336.09;;;15.16;56.26
48622;BME280;34421;48.944;9.460;2023-04-02T10:22:44;98346.81;;;14.99;56.78
48622;BME280;34421;48.944;9.460;2023-04-02T10:25:13;98350.81;;;14.68;57.45
48622;BME280;34421;48.944;9.460;2023-04-02T10:27:46;98342.13;;;14.49;58.38
48622;BME280;34421;48.944;9.460;2023-04-02T10:37:58;98356.69;;;14.53;59.97
48622;BME280;34421;48.944;9.460;2023-04-02T10:40:27;98350.66;;;14.74;59.93
48622;BME280;34421;48.944;9.460;2023-04-02T10:45:41;98356.84;;;15.20;59.23
48622;BME280;34421;48.944;9.460;2023-04-02T10:56:36;98373.00;;;15.93;55.99
48622;BME280;34421;48.944;9.460;2023-04-02T11:01:27;98385.03;;;16.29;54.56
48622;BME280;34421;48.944;9.460;2023-04-02T11:06:23;98379.41;;;16.53;55.15
48622;BME280;34421;48.944;9.460;2023-04-02T11:08:55;98378.81;;;16.73;54.32
48622;BME280;34421;48.944;9.460;2023-04-02T11:16:31;98380.63;;;17.43;52.76
48622;BME280;34421;48.944;9.460;2023-04-02T11:26:47;98388.88;;;18.69;48.67
48622;BME280;34421;48.944;9.460;2023-04-02T11:29:26;98389.81;;;18.95;48.28
48622;BME280;34421;48.944;9.460;2023-04-02T11:32:11;98392.25;;;19.22;47.87
48622;BME280;34421;48.944;9.460;2023-04-02T11:37:07;98399.03;;;19.50;47.02
48622;BME280;34421;48.944;9.460;2023-04-02T11:39:49;98396.59;;;19.74;46.89
48622;BME280;34421;48.944;9.460;2023-04-02T11:44:43;98410.34;;;19.27;46.50
48622;BME280;34421;48.944;9.460;2023-04-02T11:50:00;98414.56;;;17.82;49.49
48622;BME280;34421;48.944;9.460;2023-04-02T11:52:37;98419.25;;;17.32;50.73
48622;BME280;34421;48.944;9.460;2023-04-02T12:00:25;98428.53;;;16.70;51.65
48622;BME280;34421;48.944;9.460;2023-04-02T12:03:10;98428.97;;;16.62;51.99
48622;BME280;34421;48.944;9.460;2023-04-02T12:11:03;98436.53;;;16.43;53.07
48622;BME280;34421;48.944;9.460;2023-04-02T12:16:03;98438.84;;;16.56;54.07
48622;BME280;34421;48.944;9.460;2023-04-02T12:18:29;98438.47;;;16.70;53.49
48622;BME280;34421;48.944;9.460;2023-04-02T12:20:55;98440.75;;;16.78;54.22
48622;BME280;34421;48.944;9.460;2023-04-02T12:23:30;98444.34;;;16.67;54.43
48622;BME280;34421;48.944;9.460;2023-04-02T12:28:22;98445.94;;;16.24;55.77
48622;BME280;34421;48.944;9.460;2023-04-02T12:30:48;98445.16;;;16.06;56.70
48622;BME280;34421;48.944;9.460;2023-04-02T12:35:46;98464.16;;;15.83;57.62
48622;BME280;34421;48.944;9.460;2023-04-02T12:38:32;98466.81;;;15.83;56.75
48622;BME280;34421;48.944;9.460;2023-04-02T12:40:58;98467.22;;;15.75;57.70
48622;BME280;34421;48.944;9.460;2023-04-02T12:43:28;98476.00;;;15.70;57.09
48622;BME280;34421;48.944;9.460;2023-04-02T12:45:54;98473.28;;;15.53;56.96
48622;BME280;34421;48.944;9.460;2023-04-02T12:48:20;98477.97;;;15.46;58.17
48622;BME280;34421;48.944;9.460;2023-04-02T12:50:46;98481.72;;;15.45;58.58
48622;BME280;34421;48.944;9.460;2023-04-02T12:53:18;98480.66;;;15.46;57.78
48622;BME280;34421;48.944;9.460;2023-04-02T12:55:46;98484.88;;;15.42;58.69
48622;BME280;34421;48.944;9.460;2023-04-02T13:01:07;98488.44;;;15.31;59.46
48622;BME280;34421;48.944;9.460;2023-04-02T13:03:33;98496.00;;;15.34;59.39
48622;BME280;34421;48.944;9.460;2023-04-02T13:05:58;98496.09;;;15.39;59.74
48622;BME280;34421;48.944;9.460;2023-04-02T13:08:24;98498.41;;;15.47;59.37
48622;BME280;34421;48.944;9.460;2023-04-02T13:11:00;98501.41;;;15.50;59.46
48622;BME280;34421;48.944;9.460;2023-04-02T13:13:28;98502.38;;;15.44;60.22
48622;BME280;34421;48.944;9.460;2023-04-02T13:16:01;98512.19;;;15.39;59.44
48622;BME280;34421;48.944;9.460;2023-04-02T13:18:34;98510.00;;;15.36;60.32
48622;BME280;34421;48.944;9.460;2023-04-02T13:21:00;98515.94;;;15.38;59.31
48622;BME280;34421;48.944;9.460;2023-04-02T13:25:54;98519.19;;;15.11;59.72
48622;BME280;34421;48.944;9.460;2023-04-02T13:28:20;98523.28;;;15.02;59.56
48622;BME280;34421;48.944;9.460;2023-04-02T13:30:45;98526.72;;;14.86;60.27
48622;BME280;34421;48.944;9.460;2023-04-02T13:33:11;98534.19;;;14.72;60.17
48622;BME280;34421;48.944;9.460;2023-04-02T13:35:36;98535.94;;;14.54;60.06
48622;BME280;34421;48.944;9.460;2023-04-02T13:38:02;98534.88;;;14.44;60.39
48622;BME280;34421;48.944;9.460;2023-04-02T13:40:28;98536.28;;;14.34;60.56
48622;BME280;34421;48.944;9.460;2023-04-02T13:42:53;98540.72;;;14.29;60.53
48622;BME280;34421;48.944;9.460;2023-04-02T13:45:20;98536.03;;;14.24;60.22
48622;BME280;34421;48.944;9.460;2023-04-02T13:47:47;98539.19;;;14.21;60.65
48622;BME280;34421;48.944;9.460;2023-04-02T13:50:15;98541.53;;;14.29;60.31
48622;BME280;34421;48.944;9.460;2023-04-02T13:52:40;98545.47;;;14.39;60.85
48622;BME280;34421;48.944;9.460;2023-04-02T13:55:05;98550.72;;;14.45;60.02
48622;BME280;34421;48.944;9.460;2023-04-02T13:57:31;98553.84;;;14.42;60.66
48622;BME280;34421;48.944;9.460;2023-04-02T13:59:58;98554.56;;;14.38;60.23
48622;BME280;34421;48.944;9.460;2023-04-02T14:02:23;98551.78;;;14.32;60.12
48622;BME280;34421;48.944;9.460;2023-04-02T14:04:50;98545.13;;;14.23;60.24
48622;BME280;34421;48.944;9.460;2023-04-02T14:10:12;98563.88;;;14.11;60.38
48622;BME280;34421;48.944;9.460;2023-04-02T14:23:16;98585.00;;;13.29;59.72
48622;BME280;34421;48.944;9.460;2023-04-02T14:25:53;98589.06;;;13.13;59.69
48622;BME280;34421;48.944;9.460;2023-04-02T14:33:37;98595.22;;;13.14;59.28
48622;BME280;34421;48.944;9.460;2023-04-02T14:36:10;98598.38;;;13.29;59.04
48622;BME280;34421;48.944;9.460;2023-04-02T14:38:53;98604.28;;;13.50;59.15
48622;BME280;34421;48.944;9.460;2023-04-02T14:41:23;98611.34;;;13.44;58.61
48622;BME280;34421;48.944;9.460;2023-04-02T14:43:54;98605.22;;;13.25;58.71
48622;BME280;34421;48.944;9.460;2023-04-02T14:46:23;98608.84;;;13.12;58.94
48622;BME280;34421;48.944;9.460;2023-04-02T14:53:48;98623.13;;;12.81;59.33
48622;BME280;34421;48.944;9.460;2023-04-02T14:56:16;98630.94;;;12.83;60.02
48622;BME280;34421;48.944;9.460;2023-04-02T14:58:43;98633.00;;;12.81;59.61
48622;BME280;34421;48.944;9.460;2023-04-02T15:01:32;98633.38;;;12.84;60.05
48622;BME280;34421;48.944;9.460;2023-04-02T15:04:02;98632.66;;;12.95;58.70
48622;BME280;34421;48.944;9.460;2023-04-02T15:06:30;98628.53;;;13.18;59.17
48622;BME280;34421;48.944;9.460;2023-04-02T15:09:02;98620.63;;;13.23;59.02
48622;BME280;34421;48.944;9.460;2023-04-02T15:14:36;98643.88;;;13.04;58.38
48622;BME280;34421;48.944;9.460;2023-04-02T15:17:02;98632.81;;;12.82;58.79
48622;BME280;34421;48.944;9.460;2023-04-02T15:19:28;98636.84;;;12.85;58.75
48622;BME280;34421;48.944;9.460;2023-04-02T15:24:47;98646.59;;;12.79;59.30
48622;BME280;34421;48.944;9.460;2023-04-02T15:29:48;98651.31;;;12.59;58.90
48622;BME280;34421;48.944;9.460;2023-04-02T15:34:49;98660.97;;;12.28;58.79
48622;BME280;34421;48.944;9.460;2023-04-02T15:40:16;98668.97;;;12.03;58.85
48622;BME280;34421;48.944;9.460;2023-04-02T15:45:28;98671.38;;;12.11;58.64
48622;BME280;34421;48.944;9.460;2023-04-02T15:55:53;98694.06;;;11.82;59.21
48622;BME280;34421;48.944;9.460;2023-04-02T16:06:29;98707.63;;;11.87;59.81
48622;BME280;34421;48.944;9.460;2023-04-02T16:09:04;98711.72;;;11.83;58.83
48622;BME280;34421;48.944;9.460;2023-04-02T16:11:31;98721.19;;;11.79;58.46
48622;BME280;34421;48.944;9.460;2023-04-02T16:14:09;98726.09;;;11.82;58.27
48622;BME280;34421;48.944;9.460;2023-04-02T16:16:39;98719.94;;;11.81;57.60
48622;BME280;34421;48.944;9.460;2023-04-02T16:21:32;98734.34;;;11.67;57.29
48622;BME280;34421;48.944;9.460;2023-04-02T16:23:58;98738.50;;;11.50;57.62
48622;BME280;34421;48.944;9.460;2023-04-02T16:29:02;98742.06;;;11.24;57.85
48622;BME280;34421;48.944;9.460;2023-04-02T16:34:08;98753.59;;;10.98;58.72
48622;BME280;34421;48.944;9.460;2023-04-02T16:39:07;98756.44;;;10.96;59.15
48622;BME280;34421;48.944;9.460;2023-04-02T16:46:38;98774.69;;;10.86;58.58
48622;BME280;34421;48.944;9.460;2023-04-02T17:11:43;98822.78;;;10.03;59.93
48622;BME280;34421;48.944;9.460;2023-04-02T17:14:14;98824.97;;;9.93;60.18
48622;BME280;34421;48.944;9.460;2023-04-02T17:16:43;98835.16;;;9.82;60.86
48622;BME280;34421;48.944;9.460;2023-04-02T17:19:10;98835.56;;;9.79;60.16
48622;BME280;34421;48.944;9.460;2023-04-02T17:21:36;98834.09;;;9.77;60.22
48622;BME280;34421;48.944;9.460;2023-04-02T17:26:39;98850.41;;;9.67;60.23
48622;BME280;34421;48.944;9.460;2023-04-02T17:29:08;98856.91;;;9.58;60.19
48622;BME280;34421;48.944;9.460;2023-04-02T17:31:36;98856.81;;;9.45;60.06
48622;BME280;34421;48.944;9.460;2023-04-02T17:34:11;98877.50;;;9.28;61.29
48622;BME280;34421;48.944;9.460;2023-04-02T17:41:33;98888.91;;;9.00;60.80
48622;BME280;34421;48.944;9.460;2023-04-02T17:46:52;98904.81;;;8.94;60.84
48622;BME280;34421;48.944;9.460;2023-04-02T17:51:50;98912.34;;;8.54;61.71
48622;BME280;34421;48.944;9.460;2023-04-02T18:04:11;98948.13;;;8.43;62.59
48622;BME280;34421;48.944;9.460;2023-04-02T18:06:54;98952.50;;;8.36;62.71
48622;BME280;34421;48.944;9.460;2023-04-02T18:17:36;98976.16;;;7.93;61.86
48622;BME280;34421;48.944;9.460;2023-04-02T18:22:51;98987.69;;;8.00;61.81
48622;BME280;34421;48.944;9.460;2023-04-02T18:33:16;99014.53;;;7.82;60.83